Impacts METAR Board
IDs:

KIAH - Houston/Bush Intl, TX, US

Updated at: 0300 UTC 06 Dec 2019
Potential Impact None Slight Moderate High
Time 05/15Z 05/16Z 05/17Z 05/18Z 05/19Z 05/20Z 05/21Z 05/22Z 05/23Z 06/00Z 06/01Z 06/02Z 06/03Z
Temp59 66 71 72 74 74 73 73 72 70 68 67 65
Dewpt53 55 57 57 57 56 58 58 58 58 58 57 57
Altim30.09 30.10 30.08 30.06 30.03 29.99 29.98 29.97 29.97 29.99 30.00 30.00 30.01
VIS10 10 10 10 10 10 10 10 10 10 10 10 10
CIG250 -- 250 130 -- 150 150 250 250 250 250 250 250
CoverBKNSCTBKNBKNSCTBKNBKNBKNBKNBKNBKNBKNBKN
FltCatVFRVFRVFRVFRVFRVFRVFRVFRVFRVFRVFRVFRVFR
WX--------------------------
WDir130150160170170180180150180170160150160
WSpd5 9 8 7 6 8 9 8 7 11 7 5 5
WGst-- -- -- -- -- -- -- -- -- -- -- -- --
Raw hourly METARs
KIAH 051453Z 13005KT 10SM SCT200 BKN250 15/12 A3009 RMK AO2 SLP189 T01500117 51013
KIAH 051553Z 15009KT 10SM SCT200 SCT250 19/13 A3010 RMK AO2 SLP192 T01890128
KIAH 051653Z 16008KT 10SM FEW200 BKN250 22/14 A3008 RMK AO2 SLP186 T02170139
KIAH 051753Z 17007KT 130V210 10SM FEW028 BKN130 BKN250 22/14 A3006 RMK AO2 SLP179 T02220139 10222 20100 58009
KIAH 051853Z 17006KT 10SM SCT030 SCT120 SCT250 23/14 A3003 RMK AO2 SLP168 T02330139
KIAH 051953Z 18008KT 10SM SCT030 BKN150 BKN250 23/13 A2999 RMK AO2 SLP155 T02330133
KIAH 052053Z 18009KT 10SM SCT035 BKN150 BKN250 23/14 A2998 RMK AO2 SLP150 T02280144 56028
KIAH 052153Z 15008KT 10SM SCT043 SCT150 BKN250 23/14 A2997 RMK AO2 SLP149 T02280144
KIAH 052253Z 18007KT 10SM FEW041 SCT150 BKN250 22/14 A2997 RMK AO2 SLP148 T02220144
KIAH 052353Z 17011KT 10SM FEW035 SCT150 BKN250 21/14 A2999 RMK AO2 SLP154 T02110144 10250 20211 53004
KIAH 060053Z 16007KT 10SM FEW030 FEW160 BKN250 20/14 A3000 RMK AO2 SLP160 T02000144
KIAH 060153Z 15005KT 10SM FEW030 FEW160 BKN250 19/14 A3000 RMK AO2 SLP159 T01940139
KIAH 060253Z 16005KT 10SM FEW030 BKN250 18/14 A3001 RMK AO2 SLP161 T01830139 51007



Page loaded:  03:35 UTC  |   07:35 PM Pacific  |   08:35 PM Mountain  |   09:35 PM Central  |   10:35 PM Eastern

 

ADVISORIES

FORECASTS

FORECASTS

OBSERVATIONS

USER TOOLS

ABOUT US